Terminal Aerodrome Forecast
Issued by NWS Charleston, WV

Current Version | Previous Version | Graphics & Text | Print | Product List | Glossary On
Versions: 1 2 3 4 5 6 7 8 9 10 11 12 13 14 15 16 17 18 19 20 21 22 23 24 25
836
FTUS41 KRLX 200855 AAB
TAFEKN
TAF AMD
KEKN 200855Z 2009/2106 23006KT P6SM BKN025
     FM201900 24007G16KT P6SM BKN025
     FM210400 25005KT P6SM -RA BKN015=

USA.gov is the U.S. government's official web portal to all federal, state and local government web resources and services.